KP28

Medicine Lodge Airport

Medicine Lodge, Kansas, USA
METAR KP28 232256Z AUTO 32011G17KT 11/M08 A3024 RMK AO1 SLP249 T01061078
Observed Flight Rules
Jan-23 @ 22:56 UTC (29 minutes ago)
Wind
320° at 11 knots
 Gusting to 17 knots
Temperatures Readings
Current 11°C / 52°F
Dewpoint -8°C / 18°F
Humidity 26%
Altimeter 30.24" Hg
Pressure 1024.9 hPa
Elevation 469
METAR KP28 232256Z AUTO 32011G17KT 11/M08 A3024 RMK AO1 SLP249 T01061078
Observed Flight Rules
Jan-23 @ 22:56 UTC
(29 minutes ago)
Wind
320° at 11 knots
 Gusting to 17 knots
Temperature Dewpoint
11°C / 52°F -8°C / 18°F
Humidity Altimeter Pressure
26% 30.24" Hg 1024.9 hPa